sensor_id;sensor_type;location;lat;lon;timestamp;P1;durP1;ratioP1;P2;durP2;ratioP2
39740;SDS011;25426;53.478;10.190;2023-06-22T10:52:54;6.32;;;3.88;;
39740;SDS011;25426;53.478;10.190;2023-06-22T10:55:25;5.13;;;4.00;;
39740;SDS011;25426;53.478;10.190;2023-06-22T10:57:56;4.15;;;3.60;;
39740;SDS011;25426;53.478;10.190;2023-06-22T11:00:27;4.00;;;3.60;;
39740;SDS011;25426;53.478;10.190;2023-06-22T11:02:58;5.15;;;3.95;;
39740;SDS011;25426;53.478;10.190;2023-06-22T11:05:28;13.85;;;4.15;;
39740;SDS011;25426;53.478;10.190;2023-06-22T11:07:59;4.77;;;4.27;;
39740;SDS011;25426;53.478;10.190;2023-06-22T11:10:30;4.40;;;3.70;;
39740;SDS011;25426;53.478;10.190;2023-06-22T11:13:01;4.43;;;3.95;;
39740;SDS011;25426;53.478;10.190;2023-06-22T11:15:34;5.80;;;3.90;;
39740;SDS011;25426;53.478;10.190;2023-06-22T11:18:05;5.60;;;4.90;;
39740;SDS011;25426;53.478;10.190;2023-06-22T11:20:37;4.45;;;4.05;;
39740;SDS011;25426;53.478;10.190;2023-06-22T11:23:10;4.20;;;3.80;;
39740;SDS011;25426;53.478;10.190;2023-06-22T11:25:42;4.30;;;3.90;;
39740;SDS011;25426;53.478;10.190;2023-06-22T11:28:13;5.10;;;4.60;;
39740;SDS011;25426;53.478;10.190;2023-06-22T11:30:44;5.32;;;4.07;;
39740;SDS011;25426;53.478;10.190;2023-06-22T11:33:15;7.03;;;4.80;;
39740;SDS011;25426;53.478;10.190;2023-06-22T11:35:46;4.88;;;4.47;;
39740;SDS011;25426;53.478;10.190;2023-06-22T11:38:16;4.95;;;4.45;;
39740;SDS011;25426;53.478;10.190;2023-06-22T11:40:47;5.38;;;4.90;;
39740;SDS011;25426;53.478;10.190;2023-06-22T11:43:18;6.88;;;4.70;;
39740;SDS011;25426;53.478;10.190;2023-06-22T11:45:49;5.23;;;4.73;;
39740;SDS011;25426;53.478;10.190;2023-06-22T11:48:20;5.15;;;4.50;;
39740;SDS011;25426;53.478;10.190;2023-06-22T11:50:51;5.00;;;4.53;;
39740;SDS011;25426;53.478;10.190;2023-06-22T11:53:23;5.45;;;4.85;;
39740;SDS011;25426;53.478;10.190;2023-06-22T11:55:56;5.78;;;5.28;;
39740;SDS011;25426;53.478;10.190;2023-06-22T11:58:27;6.13;;;5.53;;
39740;SDS011;25426;53.478;10.190;2023-06-22T12:00:58;5.50;;;5.00;;
39740;SDS011;25426;53.478;10.190;2023-06-22T12:03:29;5.88;;;4.63;;
39740;SDS011;25426;53.478;10.190;2023-06-22T12:06:00;4.90;;;4.50;;
39740;SDS011;25426;53.478;10.190;2023-06-22T12:08:31;4.90;;;4.50;;
39740;SDS011;25426;53.478;10.190;2023-06-22T12:11:02;6.35;;;5.28;;
39740;SDS011;25426;53.478;10.190;2023-06-22T12:13:33;7.10;;;5.07;;
39740;SDS011;25426;53.478;10.190;2023-06-22T12:16:04;4.63;;;4.22;;
39740;SDS011;25426;53.478;10.190;2023-06-22T12:18:35;5.18;;;4.65;;
39740;SDS011;25426;53.478;10.190;2023-06-22T12:21:06;7.25;;;5.22;;
39740;SDS011;25426;53.478;10.190;2023-06-22T12:23:37;5.78;;;4.93;;
39740;SDS011;25426;53.478;10.190;2023-06-22T12:26:08;6.55;;;5.95;;
39740;SDS011;25426;53.478;10.190;2023-06-22T12:28:39;6.35;;;4.88;;
39740;SDS011;25426;53.478;10.190;2023-06-22T12:31:10;5.82;;;5.25;;
39740;SDS011;25426;53.478;10.190;2023-06-22T12:33:41;5.05;;;4.65;;
39740;SDS011;25426;53.478;10.190;2023-06-22T12:36:12;5.25;;;4.75;;
39740;SDS011;25426;53.478;10.190;2023-06-22T12:38:43;5.43;;;4.93;;
39740;SDS011;25426;53.478;10.190;2023-06-22T12:41:14;6.32;;;5.05;;
39740;SDS011;25426;53.478;10.190;2023-06-22T12:43:45;5.93;;;5.43;;
39740;SDS011;25426;53.478;10.190;2023-06-22T12:46:16;5.95;;;5.35;;
39740;SDS011;25426;53.478;10.190;2023-06-22T12:48:47;6.93;;;5.50;;
39740;SDS011;25426;53.478;10.190;2023-06-22T12:51:22;5.82;;;5.30;;
39740;SDS011;25426;53.478;10.190;2023-06-22T12:53:53;6.50;;;5.60;;
39740;SDS011;25426;53.478;10.190;2023-06-22T12:56:24;5.97;;;5.47;;
39740;SDS011;25426;53.478;10.190;2023-06-22T12:58:55;5.72;;;4.70;;
39740;SDS011;25426;53.478;10.190;2023-06-22T13:01:27;8.10;;;5.70;;
39740;SDS011;25426;53.478;10.190;2023-06-22T13:03:58;7.10;;;5.38;;
39740;SDS011;25426;53.478;10.190;2023-06-22T13:06:29;6.97;;;5.90;;
39740;SDS011;25426;53.478;10.190;2023-06-22T13:09:00;6.97;;;6.38;;
39740;SDS011;25426;53.478;10.190;2023-06-22T13:11:31;5.88;;;5.47;;
39740;SDS011;25426;53.478;10.190;2023-06-22T13:14:02;6.53;;;5.93;;
39740;SDS011;25426;53.478;10.190;2023-06-22T13:16:33;7.93;;;6.60;;
39740;SDS011;25426;53.478;10.190;2023-06-22T13:19:04;6.50;;;5.90;;
39740;SDS011;25426;53.478;10.190;2023-06-22T13:21:35;6.43;;;5.65;;
39740;SDS011;25426;53.478;10.190;2023-06-22T13:24:06;5.97;;;5.22;;
39740;SDS011;25426;53.478;10.190;2023-06-22T13:26:37;6.60;;;5.93;;
39740;SDS011;25426;53.478;10.190;2023-06-22T13:29:08;6.63;;;5.57;;
39740;SDS011;25426;53.478;10.190;2023-06-22T13:31:39;8.10;;;5.50;;
39740;SDS011;25426;53.478;10.190;2023-06-22T13:34:10;5.78;;;5.28;;
39740;SDS011;25426;53.478;10.190;2023-06-22T13:36:40;6.20;;;5.68;;
39740;SDS011;25426;53.478;10.190;2023-06-22T13:39:11;6.78;;;6.18;;
39740;SDS011;25426;53.478;10.190;2023-06-22T13:41:42;6.70;;;6.10;;
39740;SDS011;25426;53.478;10.190;2023-06-22T13:44:13;8.30;;;6.05;;
39740;SDS011;25426;53.478;10.190;2023-06-22T13:46:44;6.38;;;5.65;;
39740;SDS011;25426;53.478;10.190;2023-06-22T13:49:15;7.85;;;5.50;;
39740;SDS011;25426;53.478;10.190;2023-06-22T13:51:46;6.72;;;5.38;;
39740;SDS011;25426;53.478;10.190;2023-06-22T13:54:18;6.70;;;6.10;;
39740;SDS011;25426;53.478;10.190;2023-06-22T13:56:49;6.90;;;6.30;;
39740;SDS011;25426;53.478;10.190;2023-06-22T13:59:20;6.65;;;5.93;;
39740;SDS011;25426;53.478;10.190;2023-06-22T14:01:51;6.40;;;5.55;;
39740;SDS011;25426;53.478;10.190;2023-06-22T14:04:22;7.10;;;6.50;;
39740;SDS011;25426;53.478;10.190;2023-06-22T14:06:53;7.82;;;6.53;;
39740;SDS011;25426;53.478;10.190;2023-06-22T14:09:25;6.60;;;6.00;;
39740;SDS011;25426;53.478;10.190;2023-06-22T14:11:56;6.70;;;6.10;;
39740;SDS011;25426;53.478;10.190;2023-06-22T14:14:27;5.90;;;5.40;;
39740;SDS011;25426;53.478;10.190;2023-06-22T14:16:58;7.68;;;6.07;;
39740;SDS011;25426;53.478;10.190;2023-06-22T14:19:30;8.88;;;6.10;;
39740;SDS011;25426;53.478;10.190;2023-06-22T14:22:01;10.68;;;6.53;;
39740;SDS011;25426;53.478;10.190;2023-06-22T14:24:32;6.78;;;5.68;;
39740;SDS011;25426;53.478;10.190;2023-06-22T14:27:06;7.32;;;5.65;;
39740;SDS011;25426;53.478;10.190;2023-06-22T14:29:38;5.95;;;5.45;;
39740;SDS011;25426;53.478;10.190;2023-06-22T14:32:09;6.88;;;5.32;;
39740;SDS011;25426;53.478;10.190;2023-06-22T14:34:40;8.43;;;5.30;;
39740;SDS011;25426;53.478;10.190;2023-06-22T14:37:11;7.00;;;5.25;;
39740;SDS011;25426;53.478;10.190;2023-06-22T14:39:43;8.18;;;6.20;;
39740;SDS011;25426;53.478;10.190;2023-06-22T14:42:13;5.90;;;5.07;;
39740;SDS011;25426;53.478;10.190;2023-06-22T14:44:44;6.18;;;5.57;;
39740;SDS011;25426;53.478;10.190;2023-06-22T14:47:15;6.40;;;5.50;;
39740;SDS011;25426;53.478;10.190;2023-06-22T14:49:48;6.47;;;5.68;;
39740;SDS011;25426;53.478;10.190;2023-06-22T14:52:19;12.23;;;5.97;;
39740;SDS011;25426;53.478;10.190;2023-06-22T14:54:50;6.78;;;5.85;;
39740;SDS011;25426;53.478;10.190;2023-06-22T14:57:22;5.93;;;5.43;;
39740;SDS011;25426;53.478;10.190;2023-06-22T14:59:53;5.70;;;5.20;;
39740;SDS011;25426;53.478;10.190;2023-06-22T15:02:24;6.22;;;5.68;;
39740;SDS011;25426;53.478;10.190;2023-06-22T15:04:55;5.53;;;5.05;;
39740;SDS011;25426;53.478;10.190;2023-06-22T15:07:26;5.38;;;4.88;;
39740;SDS011;25426;53.478;10.190;2023-06-22T15:09:57;5.65;;;4.85;;
39740;SDS011;25426;53.478;10.190;2023-06-22T15:12:28;5.97;;;5.15;;
39740;SDS011;25426;53.478;10.190;2023-06-22T15:14:59;6.28;;;5.55;;
39740;SDS011;25426;53.478;10.190;2023-06-22T15:17:30;7.97;;;5.30;;
39740;SDS011;25426;53.478;10.190;2023-06-22T15:20:01;5.45;;;4.95;;
39740;SDS011;25426;53.478;10.190;2023-06-22T15:22:35;6.30;;;4.97;;
39740;SDS011;25426;53.478;10.190;2023-06-22T15:25:06;7.07;;;4.53;;
39740;SDS011;25426;53.478;10.190;2023-06-22T15:27:37;5.95;;;5.03;;
39740;SDS011;25426;53.478;10.190;2023-06-22T15:30:08;5.95;;;5.45;;
39740;SDS011;25426;53.478;10.190;2023-06-22T15:32:46;7.40;;;4.80;;
39740;SDS011;25426;53.478;10.190;2023-06-22T15:35:17;8.23;;;5.45;;
39740;SDS011;25426;53.478;10.190;2023-06-22T15:37:49;6.70;;;4.60;;
39740;SDS011;25426;53.478;10.190;2023-06-22T15:40:21;5.35;;;4.88;;
39740;SDS011;25426;53.478;10.190;2023-06-22T15:42:52;6.55;;;5.32;;
39740;SDS011;25426;53.478;10.190;2023-06-22T15:45:23;5.25;;;4.85;;
39740;SDS011;25426;53.478;10.190;2023-06-22T15:47:55;5.75;;;5.00;;
39740;SDS011;25426;53.478;10.190;2023-06-22T15:50:26;5.25;;;4.75;;
39740;SDS011;25426;53.478;10.190;2023-06-22T15:53:00;6.28;;;5.10;;
39740;SDS011;25426;53.478;10.190;2023-06-22T15:55:31;9.65;;;4.97;;
39740;SDS011;25426;53.478;10.190;2023-06-22T15:58:02;5.88;;;5.25;;
39740;SDS011;25426;53.478;10.190;2023-06-22T16:00:33;5.25;;;4.85;;
39740;SDS011;25426;53.478;10.190;2023-06-22T16:03:04;5.38;;;4.88;;
39740;SDS011;25426;53.478;10.190;2023-06-22T16:05:35;6.47;;;4.57;;
39740;SDS011;25426;53.478;10.190;2023-06-22T16:08:10;5.30;;;4.88;;
39740;SDS011;25426;53.478;10.190;2023-06-22T16:10:41;5.22;;;4.78;;
39740;SDS011;25426;53.478;10.190;2023-06-22T16:13:12;4.95;;;4.45;;
39740;SDS011;25426;53.478;10.190;2023-06-22T16:15:45;5.22;;;4.45;;
39740;SDS011;25426;53.478;10.190;2023-06-22T16:18:16;4.93;;;4.18;;
39740;SDS011;25426;53.478;10.190;2023-06-22T16:20:47;5.85;;;3.97;;
39740;SDS011;25426;53.478;10.190;2023-06-22T16:23:18;6.10;;;4.22;;
39740;SDS011;25426;53.478;10.190;2023-06-22T16:25:49;5.72;;;4.45;;
39740;SDS011;25426;53.478;10.190;2023-06-22T16:28:20;4.90;;;4.35;;
39740;SDS011;25426;53.478;10.190;2023-06-22T16:30:51;5.05;;;4.55;;
39740;SDS011;25426;53.478;10.190;2023-06-22T16:33:21;4.57;;;4.13;;
39740;SDS011;25426;53.478;10.190;2023-06-22T16:35:52;4.50;;;3.97;;
39740;SDS011;25426;53.478;10.190;2023-06-22T16:38:23;5.30;;;3.75;;
39740;SDS011;25426;53.478;10.190;2023-06-22T16:43:25;5.63;;;3.92;;
39740;SDS011;25426;53.478;10.190;2023-06-22T16:53:29;7.53;;;4.43;;
39740;SDS011;25426;53.478;10.190;2023-06-22T16:56:00;4.43;;;3.90;;
39740;SDS011;25426;53.478;10.190;2023-06-22T16:58:31;10.93;;;3.92;;
39740;SDS011;25426;53.478;10.190;2023-06-22T17:01:03;4.38;;;3.90;;
39740;SDS011;25426;53.478;10.190;2023-06-22T17:03:41;6.32;;;4.00;;
39740;SDS011;25426;53.478;10.190;2023-06-22T17:06:18;7.18;;;4.20;;
39740;SDS011;25426;53.478;10.190;2023-06-22T17:08:49;4.05;;;3.50;;
39740;SDS011;25426;53.478;10.190;2023-06-22T17:11:20;5.72;;;3.67;;
39740;SDS011;25426;53.478;10.190;2023-06-22T17:13:51;5.15;;;4.13;;
39740;SDS011;25426;53.478;10.190;2023-06-22T17:16:22;6.95;;;3.92;;
39740;SDS011;25426;53.478;10.190;2023-06-22T17:18:55;4.50;;;3.55;;
39740;SDS011;25426;53.478;10.190;2023-06-22T17:21:26;4.47;;;4.07;;
39740;SDS011;25426;53.478;10.190;2023-06-22T17:23:57;4.13;;;3.50;;
39740;SDS011;25426;53.478;10.190;2023-06-22T17:26:31;5.47;;;4.25;;
39740;SDS011;25426;53.478;10.190;2023-06-22T17:29:02;5.68;;;4.30;;
39740;SDS011;25426;53.478;10.190;2023-06-22T17:31:40;7.00;;;4.47;;
39740;SDS011;25426;53.478;10.190;2023-06-22T17:34:15;7.18;;;6.47;;
39740;SDS011;25426;53.478;10.190;2023-06-22T17:39:21;5.40;;;4.05;;
